sensor_id;sensor_type;location;lat;lon;timestamp;pressure;altitude;pressure_sealevel;temperature;humidity
62072;BME280;48031;48.542;13.232;2023-07-02T00:00:43;96647.44;;;23.85;50.79
62072;BME280;48031;48.542;13.232;2023-07-02T00:04:45;96631.78;;;22.93;56.95
62072;BME280;48031;48.542;13.232;2023-07-02T00:08:47;96637.03;;;24.13;54.96
62072;BME280;48031;48.542;13.232;2023-07-02T00:12:49;96634.63;;;23.80;54.23
62072;BME280;48031;48.542;13.232;2023-07-02T00:16:51;96665.94;;;22.61;58.96
62072;BME280;48031;48.542;13.232;2023-07-02T00:20:53;96660.41;;;22.00;62.22
62072;BME280;48031;48.542;13.232;2023-07-02T00:24:55;96660.19;;;22.05;64.65
62072;BME280;48031;48.542;13.232;2023-07-02T00:28:57;96655.13;;;22.44;62.58
62072;BME280;48031;48.542;13.232;2023-07-02T00:32:59;96647.56;;;23.33;60.28
62072;BME280;48031;48.542;13.232;2023-07-02T00:37:01;96640.75;;;24.01;58.09
62072;BME280;48031;48.542;13.232;2023-07-02T00:41:03;96636.81;;;24.34;57.33
62072;BME280;48031;48.542;13.232;2023-07-02T00:45:06;96649.69;;;24.42;56.33
62072;BME280;48031;48.542;13.232;2023-07-02T00:49:09;96642.78;;;23.73;58.79
62072;BME280;48031;48.542;13.232;2023-07-02T00:53:12;96645.38;;;23.97;58.42
62072;BME280;48031;48.542;13.232;2023-07-02T00:57:15;96645.72;;;22.97;60.31
62072;BME280;48031;48.542;13.232;2023-07-02T01:01:21;96644.88;;;23.08;61.27
62072;BME280;48031;48.542;13.232;2023-07-02T01:05:26;96646.75;;;23.04;60.84
62072;BME280;48031;48.542;13.232;2023-07-02T01:09:37;96649.72;;;23.39;59.66
62072;BME280;48031;48.542;13.232;2023-07-02T01:13:41;96648.91;;;23.39;60.21
62072;BME280;48031;48.542;13.232;2023-07-02T01:17:45;96643.69;;;23.49;60.70
62072;BME280;48031;48.542;13.232;2023-07-02T01:21:49;96646.16;;;23.82;58.83
62072;BME280;48031;48.542;13.232;2023-07-02T01:25:51;96645.97;;;23.75;58.66
62072;BME280;48031;48.542;13.232;2023-07-02T01:29:53;96638.63;;;23.51;59.60
62072;BME280;48031;48.542;13.232;2023-07-02T01:33:55;96635.81;;;23.79;58.41
62072;BME280;48031;48.542;13.232;2023-07-02T01:37:58;96642.03;;;23.76;58.36
62072;BME280;48031;48.542;13.232;2023-07-02T01:42:14;96635.63;;;23.44;58.58
62072;BME280;48031;48.542;13.232;2023-07-02T01:46:20;96644.69;;;23.29;59.14
62072;BME280;48031;48.542;13.232;2023-07-02T01:50:22;96643.81;;;23.13;59.44
62072;BME280;48031;48.542;13.232;2023-07-02T01:54:25;96644.53;;;23.66;58.41
62072;BME280;48031;48.542;13.232;2023-07-02T01:58:30;96649.94;;;23.90;58.07
62072;BME280;48031;48.542;13.232;2023-07-02T02:02:32;96653.00;;;23.29;58.40
62072;BME280;48031;48.542;13.232;2023-07-02T02:06:37;96654.50;;;22.87;59.88
62072;BME280;48031;48.542;13.232;2023-07-02T02:10:39;96662.25;;;22.81;59.83
62072;BME280;48031;48.542;13.232;2023-07-02T02:14:41;96665.03;;;22.20;61.78
62072;BME280;48031;48.542;13.232;2023-07-02T02:18:43;96655.34;;;23.15;59.79
62072;BME280;48031;48.542;13.232;2023-07-02T02:22:45;96671.69;;;22.92;60.25
62072;BME280;48031;48.542;13.232;2023-07-02T02:26:46;96665.81;;;21.64;64.50
62072;BME280;48031;48.542;13.232;2023-07-02T02:30:48;96665.25;;;22.03;63.31
62072;BME280;48031;48.542;13.232;2023-07-02T02:34:51;96666.00;;;21.46;64.38
62072;BME280;48031;48.542;13.232;2023-07-02T02:38:53;96667.00;;;21.75;64.25
62072;BME280;48031;48.542;13.232;2023-07-02T02:42:55;96667.75;;;21.96;63.82
62072;BME280;48031;48.542;13.232;2023-07-02T02:46:57;96676.31;;;21.70;63.66
62072;BME280;48031;48.542;13.232;2023-07-02T02:50:59;96670.22;;;22.10;62.86
62072;BME280;48031;48.542;13.232;2023-07-02T02:55:01;96664.78;;;21.68;63.75
62072;BME280;48031;48.542;13.232;2023-07-02T02:59:03;96680.28;;;21.93;63.57
62072;BME280;48031;48.542;13.232;2023-07-02T03:03:05;96676.94;;;21.88;63.36
62072;BME280;48031;48.542;13.232;2023-07-02T03:07:10;96679.53;;;21.27;64.99
62072;BME280;48031;48.542;13.232;2023-07-02T03:11:12;96684.63;;;21.70;63.75
62072;BME280;48031;48.542;13.232;2023-07-02T03:15:14;96685.53;;;21.62;64.53
62072;BME280;48031;48.542;13.232;2023-07-02T03:19:16;96682.75;;;22.07;62.80
62072;BME280;48031;48.542;13.232;2023-07-02T03:23:18;96678.28;;;21.70;63.70
62072;BME280;48031;48.542;13.232;2023-07-02T03:27:20;96687.69;;;22.02;62.83
62072;BME280;48031;48.542;13.232;2023-07-02T03:31:22;96690.72;;;21.76;63.19
62072;BME280;48031;48.542;13.232;2023-07-02T03:35:24;96699.13;;;21.67;63.22
62072;BME280;48031;48.542;13.232;2023-07-02T03:39:26;96701.72;;;21.96;61.95
62072;BME280;48031;48.542;13.232;2023-07-02T03:43:28;96702.31;;;21.36;64.36
62072;BME280;48031;48.542;13.232;2023-07-02T03:47:29;96703.06;;;22.23;61.73
62072;BME280;48031;48.542;13.232;2023-07-02T03:51:32;96701.22;;;22.76;59.75
62072;BME280;48031;48.542;13.232;2023-07-02T03:55:34;96708.69;;;22.15;61.46
62072;BME280;48031;48.542;13.232;2023-07-02T03:59:36;96719.97;;;22.10;62.07
62072;BME280;48031;48.542;13.232;2023-07-02T04:03:38;96720.03;;;22.83;59.89
62072;BME280;48031;48.542;13.232;2023-07-02T04:07:40;96722.19;;;23.01;59.81
62072;BME280;48031;48.542;13.232;2023-07-02T04:11:42;96732.25;;;22.82;59.87
62072;BME280;48031;48.542;13.232;2023-07-02T04:15:44;96742.47;;;22.69;60.37
62072;BME280;48031;48.542;13.232;2023-07-02T04:19:46;96735.53;;;21.81;62.94
62072;BME280;48031;48.542;13.232;2023-07-02T04:23:48;96742.22;;;21.92;63.06
62072;BME280;48031;48.542;13.232;2023-07-02T04:27:50;96749.13;;;21.33;65.83
62072;BME280;48031;48.542;13.232;2023-07-02T04:31:57;96758.34;;;21.16;67.62
62072;BME280;48031;48.542;13.232;2023-07-02T04:35:59;96759.94;;;19.48;73.79
62072;BME280;48031;48.542;13.232;2023-07-02T04:40:01;96766.84;;;19.88;76.76
62072;BME280;48031;48.542;13.232;2023-07-02T04:44:08;96761.72;;;20.25;73.33
62072;BME280;48031;48.542;13.232;2023-07-02T04:48:10;96752.28;;;20.43;71.61
62072;BME280;48031;48.542;13.232;2023-07-02T04:52:12;96736.81;;;21.84;69.36
62072;BME280;48031;48.542;13.232;2023-07-02T04:56:14;96725.63;;;22.25;69.18
62072;BME280;48031;48.542;13.232;2023-07-02T05:00:16;96739.34;;;22.46;68.91
62072;BME280;48031;48.542;13.232;2023-07-02T05:04:18;96747.88;;;22.53;66.40
62072;BME280;48031;48.542;13.232;2023-07-02T05:08:20;96765.59;;;22.16;68.42
62072;BME280;48031;48.542;13.232;2023-07-02T05:12:23;96765.50;;;21.17;70.89
62072;BME280;48031;48.542;13.232;2023-07-02T05:16:24;96760.06;;;21.83;68.94
62072;BME280;48031;48.542;13.232;2023-07-02T05:20:26;96769.25;;;21.54;69.88
62072;BME280;48031;48.542;13.232;2023-07-02T05:24:28;96775.22;;;21.77;68.55
62072;BME280;48031;48.542;13.232;2023-07-02T05:28:30;96781.25;;;21.91;67.93
62072;BME280;48031;48.542;13.232;2023-07-02T05:32:34;96780.94;;;21.39;68.93
62072;BME280;48031;48.542;13.232;2023-07-02T05:36:36;96789.53;;;22.12;65.46
62072;BME280;48031;48.542;13.232;2023-07-02T05:40:37;96794.56;;;21.35;66.44
62072;BME280;48031;48.542;13.232;2023-07-02T05:44:39;96794.94;;;22.08;64.31
62072;BME280;48031;48.542;13.232;2023-07-02T05:48:41;96796.19;;;21.98;63.95
62072;BME280;48031;48.542;13.232;2023-07-02T05:52:43;96802.28;;;22.37;62.13
62072;BME280;48031;48.542;13.232;2023-07-02T05:56:45;96795.66;;;22.74;60.60
62072;BME280;48031;48.542;13.232;2023-07-02T06:00:47;96796.75;;;22.37;59.68
62072;BME280;48031;48.542;13.232;2023-07-02T06:04:52;96809.31;;;22.47;59.38
62072;BME280;48031;48.542;13.232;2023-07-02T06:08:53;96795.41;;;23.16;57.36
62072;BME280;48031;48.542;13.232;2023-07-02T06:12:55;96803.63;;;22.88;57.81
62072;BME280;48031;48.542;13.232;2023-07-02T06:16:57;96797.84;;;22.93;57.04
62072;BME280;48031;48.542;13.232;2023-07-02T06:21:00;96806.81;;;23.39;56.51
62072;BME280;48031;48.542;13.232;2023-07-02T06:25:03;96805.84;;;23.59;55.28
62072;BME280;48031;48.542;13.232;2023-07-02T06:29:06;96803.34;;;22.69;56.97
62072;BME280;48031;48.542;13.232;2023-07-02T06:33:08;96808.13;;;23.05;57.98
62072;BME280;48031;48.542;13.232;2023-07-02T06:37:10;96805.38;;;22.35;58.41
62072;BME280;48031;48.542;13.232;2023-07-02T06:41:12;96807.91;;;22.73;57.74
62072;BME280;48031;48.542;13.232;2023-07-02T06:45:14;96821.03;;;22.89;57.85
62072;BME280;48031;48.542;13.232;2023-07-02T06:49:15;96816.50;;;23.20;56.49
62072;BME280;48031;48.542;13.232;2023-07-02T06:53:17;96817.16;;;22.69;55.82
62072;BME280;48031;48.542;13.232;2023-07-02T06:57:20;96822.97;;;23.25;54.01
62072;BME280;48031;48.542;13.232;2023-07-02T07:01:22;96815.84;;;24.31;49.99
62072;BME280;48031;48.542;13.232;2023-07-02T07:05:23;96829.69;;;23.11;52.03
62072;BME280;48031;48.542;13.232;2023-07-02T07:09:25;96835.19;;;22.75;52.95
62072;BME280;48031;48.542;13.232;2023-07-02T07:13:27;96837.41;;;23.18;50.99
62072;BME280;48031;48.542;13.232;2023-07-02T07:17:29;96830.88;;;24.30;45.72
62072;BME280;48031;48.542;13.232;2023-07-02T07:21:31;96829.34;;;25.08;43.93
62072;BME280;48031;48.542;13.232;2023-07-02T07:25:33;96846.56;;;23.83;48.10
62072;BME280;48031;48.542;13.232;2023-07-02T07:29:34;96837.59;;;24.01;45.44
62072;BME280;48031;48.542;13.232;2023-07-02T07:33:36;96827.03;;;24.63;45.88
62072;BME280;48031;48.542;13.232;2023-07-02T07:37:38;96836.47;;;24.90;45.18
62072;BME280;48031;48.542;13.232;2023-07-02T07:41:40;96845.41;;;24.99;44.84
62072;BME280;48031;48.542;13.232;2023-07-02T07:45:42;96861.44;;;23.90;45.91
62072;BME280;48031;48.542;13.232;2023-07-02T07:49:44;96867.34;;;24.17;45.29
62072;BME280;48031;48.542;13.232;2023-07-02T07:53:45;96872.00;;;23.36;46.40
62072;BME280;48031;48.542;13.232;2023-07-02T07:57:48;96873.44;;;23.94;45.54
62072;BME280;48031;48.542;13.232;2023-07-02T08:01:49;96886.22;;;23.10;47.14
62072;BME280;48031;48.542;13.232;2023-07-02T08:05:51;96875.81;;;23.68;45.48
62072;BME280;48031;48.542;13.232;2023-07-02T08:09:53;96876.69;;;24.96;43.68
62072;BME280;48031;48.542;13.232;2023-07-02T08:13:55;96879.63;;;24.03;45.50
62072;BME280;48031;48.542;13.232;2023-07-02T08:17:57;96879.31;;;24.76;43.84
62072;BME280;48031;48.542;13.232;2023-07-02T08:22:00;96875.91;;;23.35;46.65
62072;BME280;48031;48.542;13.232;2023-07-02T08:26:02;96889.22;;;24.18;44.21
62072;BME280;48031;48.542;13.232;2023-07-02T08:30:05;96906.25;;;23.80;45.16
62072;BME280;48031;48.542;13.232;2023-07-02T08:34:07;96901.13;;;24.07;44.29
62072;BME280;48031;48.542;13.232;2023-07-02T08:38:09;96915.75;;;23.43;45.88
62072;BME280;48031;48.542;13.232;2023-07-02T08:42:10;96917.84;;;23.58;45.49
62072;BME280;48031;48.542;13.232;2023-07-02T08:46:12;96923.25;;;23.18;46.32
62072;BME280;48031;48.542;13.232;2023-07-02T08:50:16;96935.41;;;23.50;47.48
62072;BME280;48031;48.542;13.232;2023-07-02T08:54:18;96940.47;;;23.24;45.97
62072;BME280;48031;48.542;13.232;2023-07-02T08:58:20;96948.06;;;22.16;48.25
62072;BME280;48031;48.542;13.232;2023-07-02T09:02:33;96960.56;;;21.92;48.42
62072;BME280;48031;48.542;13.232;2023-07-02T09:06:35;96953.59;;;22.16;48.19
62072;BME280;48031;48.542;13.232;2023-07-02T09:10:37;96954.09;;;22.30;48.11
62072;BME280;48031;48.542;13.232;2023-07-02T09:14:39;96951.66;;;22.49;47.07
62072;BME280;48031;48.542;13.232;2023-07-02T09:18:41;96949.69;;;23.52;45.23
62072;BME280;48031;48.542;13.232;2023-07-02T09:22:53;96952.44;;;23.28;46.30
62072;BME280;48031;48.542;13.232;2023-07-02T09:26:58;96951.75;;;24.43;44.32
62072;BME280;48031;48.542;13.232;2023-07-02T09:31:00;96957.56;;;23.50;45.95
62072;BME280;48031;48.542;13.232;2023-07-02T09:35:02;96965.13;;;23.16;47.01
62072;BME280;48031;48.542;13.232;2023-07-02T09:39:18;96946.75;;;25.52;42.86
62072;BME280;48031;48.542;13.232;2023-07-02T09:43:21;96947.72;;;25.12;43.67
62072;BME280;48031;48.542;13.232;2023-07-02T09:47:23;96959.19;;;25.11;42.65
62072;BME280;48031;48.542;13.232;2023-07-02T09:51:26;96967.03;;;24.65;44.39
62072;BME280;48031;48.542;13.232;2023-07-02T09:55:28;96962.69;;;25.71;42.41
62072;BME280;48031;48.542;13.232;2023-07-02T09:59:30;96956.06;;;25.28;43.31
62072;BME280;48031;48.542;13.232;2023-07-02T10:03:32;96963.91;;;24.67;44.78
62072;BME280;48031;48.542;13.232;2023-07-02T10:07:34;96967.22;;;23.92;46.07
62072;BME280;48031;48.542;13.232;2023-07-02T10:11:36;96963.16;;;24.54;45.28
62072;BME280;48031;48.542;13.232;2023-07-02T10:15:37;96966.97;;;25.37;44.21
62072;BME280;48031;48.542;13.232;2023-07-02T10:19:53;96962.78;;;26.09;41.62
62072;BME280;48031;48.542;13.232;2023-07-02T10:23:55;96959.78;;;26.72;40.28
62072;BME280;48031;48.542;13.232;2023-07-02T10:27:58;96949.97;;;26.78;40.26
62072;BME280;48031;48.542;13.232;2023-07-02T10:32:01;96960.75;;;26.06;41.65
62072;BME280;48031;48.542;13.232;2023-07-02T10:36:17;96935.47;;;29.43;35.84
62072;BME280;48031;48.542;13.232;2023-07-02T10:40:22;96947.78;;;29.79;34.96
62072;BME280;48031;48.542;13.232;2023-07-02T10:44:24;96957.97;;;27.67;37.40
62072;BME280;48031;48.542;13.232;2023-07-02T10:48:26;96959.81;;;25.83;42.27
62072;BME280;48031;48.542;13.232;2023-07-02T10:52:37;96961.97;;;25.42;42.87
62072;BME280;48031;48.542;13.232;2023-07-02T10:56:41;96955.53;;;26.39;40.93
62072;BME280;48031;48.542;13.232;2023-07-02T11:00:44;96943.31;;;29.70;35.18
62072;BME280;48031;48.542;13.232;2023-07-02T11:04:47;96959.63;;;28.54;35.76
62072;BME280;48031;48.542;13.232;2023-07-02T11:08:49;96934.47;;;31.06;31.46
62072;BME280;48031;48.542;13.232;2023-07-02T11:12:50;96935.59;;;32.50;31.17
62072;BME280;48031;48.542;13.232;2023-07-02T11:16:57;96947.59;;;30.84;31.40
62072;BME280;48031;48.542;13.232;2023-07-02T11:21:09;96936.75;;;33.95;27.92
62072;BME280;48031;48.542;13.232;2023-07-02T11:25:18;96947.69;;;32.33;28.85
62072;BME280;48031;48.542;13.232;2023-07-02T11:29:21;96944.13;;;33.16;28.29
62072;BME280;48031;48.542;13.232;2023-07-02T11:37:34;96930.50;;;31.57;29.72
62072;BME280;48031;48.542;13.232;2023-07-02T11:41:40;96934.22;;;29.88;32.86
62072;BME280;48031;48.542;13.232;2023-07-02T11:45:43;96928.88;;;27.94;35.87
62072;BME280;48031;48.542;13.232;2023-07-02T11:49:45;96918.34;;;36.43;22.72
62072;BME280;48031;48.542;13.232;2023-07-02T11:53:47;96913.97;;;36.97;22.17
62072;BME280;48031;48.542;13.232;2023-07-02T11:57:48;96905.13;;;35.93;24.45
62072;BME280;48031;48.542;13.232;2023-07-02T12:01:51;96917.88;;;30.66;29.67
62072;BME280;48031;48.542;13.232;2023-07-02T12:05:53;96906.66;;;32.68;27.99
62072;BME280;48031;48.542;13.232;2023-07-02T12:09:55;96932.25;;;28.97;32.97
62072;BME280;48031;48.542;13.232;2023-07-02T12:13:57;96917.13;;;27.55;37.36
62072;BME280;48031;48.542;13.232;2023-07-02T12:17:59;96902.28;;;30.58;29.52
62072;BME280;48031;48.542;13.232;2023-07-02T12:22:01;96885.47;;;41.05;17.60
62072;BME280;48031;48.542;13.232;2023-07-02T12:26:03;96892.13;;;34.61;23.82
62072;BME280;48031;48.542;13.232;2023-07-02T12:30:05;96905.38;;;41.76;16.80
62072;BME280;48031;48.542;13.232;2023-07-02T12:34:07;96895.69;;;42.32;14.72
62072;BME280;48031;48.542;13.232;2023-07-02T12:38:09;96913.41;;;41.60;15.47
62072;BME280;48031;48.542;13.232;2023-07-02T12:42:11;96888.06;;;44.48;14.08
62072;BME280;48031;48.542;13.232;2023-07-02T12:46:13;96898.19;;;42.12;15.52
62072;BME280;48031;48.542;13.232;2023-07-02T12:50:15;96896.16;;;42.49;15.15
62072;BME280;48031;48.542;13.232;2023-07-02T12:54:17;96883.88;;;45.32;12.78
62072;BME280;48031;48.542;13.232;2023-07-02T12:58:19;96898.69;;;42.38;15.45
62072;BME280;48031;48.542;13.232;2023-07-02T13:02:22;96902.09;;;35.03;22.75
62072;BME280;48031;48.542;13.232;2023-07-02T13:06:24;96893.53;;;30.87;29.13
62072;BME280;48031;48.542;13.232;2023-07-02T13:10:26;96912.47;;;27.89;34.90
62072;BME280;48031;48.542;13.232;2023-07-02T13:14:27;96887.06;;;30.62;30.65
62072;BME280;48031;48.542;13.232;2023-07-02T13:18:29;96898.97;;;29.72;32.63
62072;BME280;48031;48.542;13.232;2023-07-02T13:22:31;96897.09;;;29.36;32.86
62072;BME280;48031;48.542;13.232;2023-07-02T13:26:33;96871.09;;;35.00;24.01
62072;BME280;48031;48.542;13.232;2023-07-02T13:30:35;96876.66;;;32.33;28.35
62072;BME280;48031;48.542;13.232;2023-07-02T13:34:37;96863.44;;;30.56;29.42
62072;BME280;48031;48.542;13.232;2023-07-02T13:38:39;96859.50;;;30.85;30.71
62072;BME280;48031;48.542;13.232;2023-07-02T13:42:42;96853.31;;;42.67;16.72
62072;BME280;48031;48.542;13.232;2023-07-02T13:46:45;96874.75;;;43.74;15.25
62072;BME280;48031;48.542;13.232;2023-07-02T13:50:47;96867.47;;;43.97;14.28
62072;BME280;48031;48.542;13.232;2023-07-02T13:54:49;96861.38;;;45.10;14.00
62072;BME280;48031;48.542;13.232;2023-07-02T14:02:58;96882.56;;;30.36;29.63
62072;BME280;48031;48.542;13.232;2023-07-02T14:07:03;96873.41;;;29.77;31.42
62072;BME280;48031;48.542;13.232;2023-07-02T14:11:05;96871.41;;;36.45;23.78
62072;BME280;48031;48.542;13.232;2023-07-02T14:15:08;96864.97;;;43.57;14.59
62072;BME280;48031;48.542;13.232;2023-07-02T14:19:10;96864.22;;;42.96;14.68
62072;BME280;48031;48.542;13.232;2023-07-02T14:23:12;96868.47;;;43.19;15.16
62072;BME280;48031;48.542;13.232;2023-07-02T14:27:13;96861.56;;;44.77;13.84
62072;BME280;48031;48.542;13.232;2023-07-02T14:31:15;96859.56;;;43.59;14.22
62072;BME280;48031;48.542;13.232;2023-07-02T14:35:17;96869.69;;;38.78;20.46
62072;BME280;48031;48.542;13.232;2023-07-02T14:39:21;96863.53;;;45.00;13.99
62072;BME280;48031;48.542;13.232;2023-07-02T14:43:26;96862.16;;;41.38;17.48
62072;BME280;48031;48.542;13.232;2023-07-02T14:47:28;96868.84;;;33.86;25.66
62072;BME280;48031;48.542;13.232;2023-07-02T14:51:30;96867.06;;;33.07;27.19
62072;BME280;48031;48.542;13.232;2023-07-02T14:55:32;96860.97;;;30.44;31.24
62072;BME280;48031;48.542;13.232;2023-07-02T14:59:34;96857.84;;;30.52;31.95
62072;BME280;48031;48.542;13.232;2023-07-02T15:03:36;96851.53;;;31.05;29.69
62072;BME280;48031;48.542;13.232;2023-07-02T15:07:38;96853.56;;;31.26;29.81
62072;BME280;48031;48.542;13.232;2023-07-02T15:11:41;96850.34;;;29.95;31.98
62072;BME280;48031;48.542;13.232;2023-07-02T15:15:44;96854.56;;;30.43;30.78
62072;BME280;48031;48.542;13.232;2023-07-02T15:19:46;96850.34;;;29.98;32.46
62072;BME280;48031;48.542;13.232;2023-07-02T15:23:48;96849.88;;;30.72;31.34
62072;BME280;48031;48.542;13.232;2023-07-02T15:27:50;96856.25;;;29.83;33.36
62072;BME280;48031;48.542;13.232;2023-07-02T15:31:52;96842.13;;;28.70;34.41
62072;BME280;48031;48.542;13.232;2023-07-02T15:35:53;96844.22;;;28.43;34.51
62072;BME280;48031;48.542;13.232;2023-07-02T15:39:55;96844.13;;;30.30;32.34
62072;BME280;48031;48.542;13.232;2023-07-02T15:43:57;96843.97;;;29.98;33.75
62072;BME280;48031;48.542;13.232;2023-07-02T15:48:04;96837.50;;;28.84;34.18
62072;BME280;48031;48.542;13.232;2023-07-02T15:52:06;96845.53;;;29.37;34.31
62072;BME280;48031;48.542;13.232;2023-07-02T15:56:09;96838.44;;;30.12;33.09
62072;BME280;48031;48.542;13.232;2023-07-02T16:00:11;96841.53;;;31.32;30.43
62072;BME280;48031;48.542;13.232;2023-07-02T16:04:14;96832.09;;;33.08;27.63
62072;BME280;48031;48.542;13.232;2023-07-02T16:08:16;96829.91;;;31.45;30.48
62072;BME280;48031;48.542;13.232;2023-07-02T16:12:18;96831.88;;;30.84;32.30
62072;BME280;48031;48.542;13.232;2023-07-02T16:16:20;96825.09;;;31.27;30.74
62072;BME280;48031;48.542;13.232;2023-07-02T16:20:22;96827.00;;;30.52;31.14
62072;BME280;48031;48.542;13.232;2023-07-02T16:24:26;96827.16;;;29.94;31.70
62072;BME280;48031;48.542;13.232;2023-07-02T16:28:29;96840.59;;;28.42;33.22
62072;BME280;48031;48.542;13.232;2023-07-02T16:32:31;96828.88;;;28.63;33.43
62072;BME280;48031;48.542;13.232;2023-07-02T16:36:33;96834.75;;;28.18;33.92
62072;BME280;48031;48.542;13.232;2023-07-02T16:40:35;96825.88;;;30.92;29.31
62072;BME280;48031;48.542;13.232;2023-07-02T16:44:38;96819.03;;;33.79;24.27
62072;BME280;48031;48.542;13.232;2023-07-02T16:48:40;96811.34;;;34.82;23.92
62072;BME280;48031;48.542;13.232;2023-07-02T16:52:42;96820.84;;;37.03;20.85
62072;BME280;48031;48.542;13.232;2023-07-02T16:56:51;96826.72;;;35.97;22.03
62072;BME280;48031;48.542;13.232;2023-07-02T17:01:05;96835.47;;;29.29;30.30
62072;BME280;48031;48.542;13.232;2023-07-02T17:05:08;96832.56;;;28.34;31.46
62072;BME280;48031;48.542;13.232;2023-07-02T17:13:25;96816.00;;;29.36;30.94
62072;BME280;48031;48.542;13.232;2023-07-02T17:17:27;96822.13;;;29.59;30.67
62072;BME280;48031;48.542;13.232;2023-07-02T17:21:30;96828.44;;;29.42;30.82
62072;BME280;48031;48.542;13.232;2023-07-02T17:25:31;96817.41;;;29.16;31.69
62072;BME280;48031;48.542;13.232;2023-07-02T17:29:34;96823.28;;;30.27;30.72
62072;BME280;48031;48.542;13.232;2023-07-02T17:33:35;96823.53;;;29.32;32.18
62072;BME280;48031;48.542;13.232;2023-07-02T17:37:37;96829.66;;;29.01;32.87
62072;BME280;48031;48.542;13.232;2023-07-02T17:41:39;96820.50;;;29.51;31.64
62072;BME280;48031;48.542;13.232;2023-07-02T17:45:41;96831.88;;;29.25;32.42
62072;BME280;48031;48.542;13.232;2023-07-02T17:49:53;96822.59;;;29.14;32.13
62072;BME280;48031;48.542;13.232;2023-07-02T17:53:55;96822.09;;;28.27;33.98
62072;BME280;48031;48.542;13.232;2023-07-02T17:57:57;96823.66;;;28.58;33.93
62072;BME280;48031;48.542;13.232;2023-07-02T18:01:59;96833.41;;;28.08;33.57
62072;BME280;48031;48.542;13.232;2023-07-02T18:06:02;96836.66;;;27.31;34.99
62072;BME280;48031;48.542;13.232;2023-07-02T18:10:04;96836.66;;;27.54;34.93
62072;BME280;48031;48.542;13.232;2023-07-02T18:14:06;96836.88;;;27.68;34.74
62072;BME280;48031;48.542;13.232;2023-07-02T18:18:08;96843.13;;;27.35;35.78
62072;BME280;48031;48.542;13.232;2023-07-02T18:22:11;96838.34;;;27.36;36.02
62072;BME280;48031;48.542;13.232;2023-07-02T18:26:13;96836.16;;;27.75;35.71
62072;BME280;48031;48.542;13.232;2023-07-02T18:30:15;96839.31;;;27.73;35.89
62072;BME280;48031;48.542;13.232;2023-07-02T18:34:17;96822.84;;;27.12;36.96
62072;BME280;48031;48.542;13.232;2023-07-02T18:38:19;96832.19;;;27.49;36.70
62072;BME280;48031;48.542;13.232;2023-07-02T18:42:21;96831.41;;;27.75;36.63
62072;BME280;48031;48.542;13.232;2023-07-02T18:46:24;96830.34;;;27.34;36.60
62072;BME280;48031;48.542;13.232;2023-07-02T18:50:27;96834.44;;;27.14;37.51
62072;BME280;48031;48.542;13.232;2023-07-02T18:54:29;96836.72;;;26.85;37.91
62072;BME280;48031;48.542;13.232;2023-07-02T18:58:32;96840.97;;;26.79;38.69
62072;BME280;48031;48.542;13.232;2023-07-02T19:02:35;96841.81;;;26.61;39.02
62072;BME280;48031;48.542;13.232;2023-07-02T19:06:37;96846.44;;;26.30;39.42
62072;BME280;48031;48.542;13.232;2023-07-02T19:10:39;96849.13;;;26.27;39.57
62072;BME280;48031;48.542;13.232;2023-07-02T19:14:41;96846.28;;;26.65;39.18
62072;BME280;48031;48.542;13.232;2023-07-02T19:18:43;96857.41;;;26.23;39.62
62072;BME280;48031;48.542;13.232;2023-07-02T19:22:45;96851.44;;;26.63;39.56
62072;BME280;48031;48.542;13.232;2023-07-02T19:26:47;96866.66;;;26.69;38.49
62072;BME280;48031;48.542;13.232;2023-07-02T19:30:50;96867.63;;;26.38;39.43
62072;BME280;48031;48.542;13.232;2023-07-02T19:34:58;96862.94;;;26.62;38.81
62072;BME280;48031;48.542;13.232;2023-07-02T19:39:00;96870.84;;;26.60;38.96
62072;BME280;48031;48.542;13.232;2023-07-02T19:43:01;96873.97;;;26.20;40.02
62072;BME280;48031;48.542;13.232;2023-07-02T19:47:04;96879.13;;;26.37;39.02
62072;BME280;48031;48.542;13.232;2023-07-02T19:51:05;96885.25;;;25.88;40.43
62072;BME280;48031;48.542;13.232;2023-07-02T19:55:10;96884.50;;;26.26;39.92
62072;BME280;48031;48.542;13.232;2023-07-02T19:59:12;96901.44;;;26.21;39.71
62072;BME280;48031;48.542;13.232;2023-07-02T20:03:15;96896.34;;;26.62;39.09
62072;BME280;48031;48.542;13.232;2023-07-02T20:07:17;96899.84;;;26.59;39.11
62072;BME280;48031;48.542;13.232;2023-07-02T20:11:18;96902.94;;;26.54;40.03
62072;BME280;48031;48.542;13.232;2023-07-02T20:15:21;96899.88;;;26.39;40.84
62072;BME280;48031;48.542;13.232;2023-07-02T20:19:22;96896.31;;;25.85;41.06
62072;BME280;48031;48.542;13.232;2023-07-02T20:23:24;96911.25;;;25.61;41.15
62072;BME280;48031;48.542;13.232;2023-07-02T20:27:28;96916.63;;;25.07;42.07
62072;BME280;48031;48.542;13.232;2023-07-02T20:31:29;96924.91;;;25.85;40.68
62072;BME280;48031;48.542;13.232;2023-07-02T20:35:37;96917.09;;;25.56;41.57
62072;BME280;48031;48.542;13.232;2023-07-02T20:39:42;96924.50;;;25.36;42.04
62072;BME280;48031;48.542;13.232;2023-07-02T20:43:46;96932.50;;;24.63;44.64
62072;BME280;48031;48.542;13.232;2023-07-02T20:47:51;96928.50;;;24.92;43.57
62072;BME280;48031;48.542;13.232;2023-07-02T20:51:53;96941.97;;;24.90;43.94
62072;BME280;48031;48.542;13.232;2023-07-02T20:55:56;96944.50;;;25.10;43.58
62072;BME280;48031;48.542;13.232;2023-07-02T20:59:58;96948.88;;;24.96;43.75
62072;BME280;48031;48.542;13.232;2023-07-02T21:04:01;96958.19;;;25.19;42.87
62072;BME280;48031;48.542;13.232;2023-07-02T21:08:08;96958.50;;;25.45;42.26
62072;BME280;48031;48.542;13.232;2023-07-02T21:12:09;96955.34;;;25.31;42.75
62072;BME280;48031;48.542;13.232;2023-07-02T21:16:11;96956.88;;;25.29;42.86
62072;BME280;48031;48.542;13.232;2023-07-02T21:20:13;96954.44;;;24.96;44.00